Bochem Ghent — VRIA8 — position and weather

sailwx.info

Track history (hours):
 
Tides and Currents Weather Stations Pressure Air Temp Water Temp Dewpoint Dewpoint Depression Visibility Wind Speed Wind Dir Waves Ship Positions

Bochem Ghent

Last reported at 2017-Sep-09 21:46 UTC. Time now 2017-Sep-24 05:05 UTC.
Position N 28°57' E 032°50'.
Warning: this ship's position is 14 days out of date.

Length 170 m; draft 7 m.

Type: Ship. MMSI: 477351300.

Date/timePositionNaut miles runAvg speedWind from/ knotsBaromVisibWave heightAir tempDewpointWater temp
2017-Sep-09 21:46N 28°57' E 032°50'414.9
2017-Sep-09 21:30N 29°01' E 032°48'  
2017-Sep-05 08:46N 36°04' E 015°12'614.9
2017-Sep-05 08:20N 36°07' E 015°05'815.2
2017-Sep-05 07:50N 36°12' E 014°57'515.4
2017-Sep-05 07:30N 36°15' E 014°52'815.5
2017-Sep-05 07:00N 36°19' E 014°44'815.4
2017-Sep-05 06:30N 36°23' E 014°36'815.5
2017-Sep-05 06:00N 36°28' E 014°29'815.5
2017-Sep-05 05:30N 36°32' E 014°21'815.6
2017-Sep-05 04:59N 36°35' E 014°12'715.5
2017-Sep-05 04:30N 36°39' E 014°04'815.6
2017-Sep-05 04:00N 36°43' E 013°55'815.4
2017-Sep-05 03:30N 36°47' E 013°47'815.4
2017-Sep-05 03:00N 36°51' E 013°38'815.3
2017-Sep-05 02:30N 36°56' E 013°31'815.5
2017-Sep-05 02:00N 37°00' E 013°23'41214.4
2017-Sep-03 21:24N 37°49' E 004°49'614.1
2017-Sep-03 20:59N 37°48' E 004°41'714.2
2017-Sep-03 20:30N 37°48' E 004°33'714.2
2017-Sep-03 19:59N 37°48' E 004°23'914.3
2017-Sep-03 19:19N 37°47' E 004°11'514.5
2017-Sep-03 18:59N 37°47' E 004°05'714.3
2017-Sep-03 18:30N 37°47' E 003°56'714.4
2017-Sep-03 18:00N 37°46' E 003°47'714.5
2017-Sep-03 17:30N 37°46' E 003°38'714.6
2017-Sep-03 17:00N 37°46' E 003°29'914.6
2017-Sep-03 16:24N 37°45' E 003°18'914.8
2017-Sep-03 15:49N 37°44' E 003°07'514.9
2017-Sep-03 15:29N 37°42' E 003°01'814.8
2017-Sep-03 14:57N 37°39' E 002°52'1414.9
2017-Sep-03 14:01N 37°34' E 002°35'815.0
2017-Sep-03 13:29N 37°32' E 002°26'2914.8
2017-Sep-03 11:30N 37°24' E 001°50'1514.1
2017-Sep-03 10:24N 37°19' E 001°32'4114.2
2017-Sep-03 07:30N 37°07' E 000°42'29414.6
2017-Sep-02 11:22N 36°00' W 005°14'513.0
2017-Sep-02 11:00N 35°59' W 005°20'612.2
2017-Sep-02 10:30N 35°57' W 005°27'1110.7
2017-Sep-02 09:28N 35°54' W 005°40'510.4
2017-Sep-02 09:00N 35°54' W 005°46'12313.3
2017-Sep-01 23:45N 36°16' W 008°16'415.1
2017-Sep-01 23:30N 36°18' W 008°20'815.0
2017-Sep-01 23:00N 36°20' W 008°29'714.9
2017-Sep-01 22:30N 36°23' W 008°37'715.0
2017-Sep-01 22:00N 36°25' W 008°46'815.2
2017-Sep-01 21:30N 36°28' W 008°55'815.1
2017-Sep-01 21:00N 36°31' W 009°04'815.1
2017-Sep-01 20:30N 36°33' W 009°13'714.4
2017-Sep-01 20:00N 36°37' W 009°20'815.2
2017-Sep-01 19:30N 36°42' W 009°27'715.0
2017-Sep-01 19:00N 36°48' W 009°33'815.2
2017-Sep-01 18:30N 36°55' W 009°36'815.2
2017-Sep-01 18:00N 37°02' W 009°39'815.6
2017-Sep-01 17:30N 37°10' W 009°41'815.5
2017-Sep-01 17:00N 37°18' W 009°42'815.5
2017-Sep-01 16:30N 37°25' W 009°44'815.5
2017-Sep-01 16:00N 37°33' W 009°46'815.0
2017-Sep-01 15:30N 37°40' W 009°48'815.2
2017-Sep-01 15:00N 37°47' W 009°50'815.5
2017-Sep-01 14:30N 37°55' W 009°53'815.5
2017-Sep-01 14:00N 38°02' W 009°55'815.3
2017-Sep-01 13:30N 38°10' W 009°57'815.2
2017-Sep-01 13:00N 38°17' W 009°60'715.0
2017-Sep-01 12:30N 38°25' W 010°02'715.0
2017-Sep-01 12:01N 38°32' W 010°05'815.0
2017-Sep-01 11:30N 38°39' W 010°07'714.8
2017-Sep-01 11:01N 38°46' W 010°07'815.0
2017-Sep-01 10:30N 38°54' W 010°07'715.0
2017-Sep-01 10:00N 39°01' W 010°06'815.1
2017-Sep-01 09:30N 39°09' W 010°06'715.0
2017-Sep-01 09:00N 39°16' W 010°05'815.1
2017-Sep-01 08:30N 39°24' W 010°04'815.0
2017-Sep-01 08:00N 39°32' W 010°04'1015.1
2017-Sep-01 07:22N 39°41' W 010°05'715.3
2017-Sep-01 06:54N 39°48' W 010°06'814.9
2017-Sep-01 06:20N 39°57' W 010°07'2614.7
2017-Sep-01 04:35N 40°22' W 010°07'114.7
2017-Sep-01 04:30N 40°24' W 010°07'814.7
2017-Sep-01 03:58N 40°32' W 010°07'  
Track history (hours):
 
Tides and Currents Weather Stations Pressure Air Temp Water Temp Dewpoint Dewpoint Depression Visibility Wind Speed Wind Dir Waves Ship Positions

Bochem Ghent

Last reported at 2017-Sep-09 21:46 UTC. Time now 2017-Sep-24 05:05 UTC.
Position N 28°57' E 032°50'.
Warning: this ship's position is 14 days out of date.

Length 170 m; draft 7 m.

Type: Ship. MMSI: 477351300.

Date/timePositionNaut miles runAvg speedWind from/ knotsBaromVisibWave heightAir tempDewpointWater temp
2017-Sep-09 21:46N 28°57' E 032°50'414.9
2017-Sep-09 21:30N 29°01' E 032°48'  
2017-Sep-05 08:46N 36°04' E 015°12'614.9
2017-Sep-05 08:20N 36°07' E 015°05'815.2
2017-Sep-05 07:50N 36°12' E 014°57'515.4
2017-Sep-05 07:30N 36°15' E 014°52'815.5
2017-Sep-05 07:00N 36°19' E 014°44'815.4
2017-Sep-05 06:30N 36°23' E 014°36'815.5
2017-Sep-05 06:00N 36°28' E 014°29'815.5
2017-Sep-05 05:30N 36°32' E 014°21'815.6
2017-Sep-05 04:59N 36°35' E 014°12'715.5
2017-Sep-05 04:30N 36°39' E 014°04'815.6
2017-Sep-05 04:00N 36°43' E 013°55'815.4
2017-Sep-05 03:30N 36°47' E 013°47'815.4
2017-Sep-05 03:00N 36°51' E 013°38'815.3
2017-Sep-05 02:30N 36°56' E 013°31'815.5
2017-Sep-05 02:00N 37°00' E 013°23'41214.4
2017-Sep-03 21:24N 37°49' E 004°49'614.1
2017-Sep-03 20:59N 37°48' E 004°41'714.2
2017-Sep-03 20:30N 37°48' E 004°33'714.2
2017-Sep-03 19:59N 37°48' E 004°23'914.3
2017-Sep-03 19:19N 37°47' E 004°11'514.5
2017-Sep-03 18:59N 37°47' E 004°05'714.3
2017-Sep-03 18:30N 37°47' E 003°56'714.4
2017-Sep-03 18:00N 37°46' E 003°47'714.5
2017-Sep-03 17:30N 37°46' E 003°38'714.6
2017-Sep-03 17:00N 37°46' E 003°29'914.6
2017-Sep-03 16:24N 37°45' E 003°18'914.8
2017-Sep-03 15:49N 37°44' E 003°07'514.9
2017-Sep-03 15:29N 37°42' E 003°01'814.8
2017-Sep-03 14:57N 37°39' E 002°52'1414.9
2017-Sep-03 14:01N 37°34' E 002°35'815.0
2017-Sep-03 13:29N 37°32' E 002°26'2914.8
2017-Sep-03 11:30N 37°24' E 001°50'1514.1
2017-Sep-03 10:24N 37°19' E 001°32'4114.2
2017-Sep-03 07:30N 37°07' E 000°42'29414.6
2017-Sep-02 11:22N 36°00' W 005°14'513.0
2017-Sep-02 11:00N 35°59' W 005°20'612.2
2017-Sep-02 10:30N 35°57' W 005°27'1110.7
2017-Sep-02 09:28N 35°54' W 005°40'510.4
2017-Sep-02 09:00N 35°54' W 005°46'12313.3
2017-Sep-01 23:45N 36°16' W 008°16'415.1
2017-Sep-01 23:30N 36°18' W 008°20'815.0
2017-Sep-01 23:00N 36°20' W 008°29'714.9
2017-Sep-01 22:30N 36°23' W 008°37'715.0
2017-Sep-01 22:00N 36°25' W 008°46'815.2
2017-Sep-01 21:30N 36°28' W 008°55'815.1
2017-Sep-01 21:00N 36°31' W 009°04'815.1
2017-Sep-01 20:30N 36°33' W 009°13'714.4
2017-Sep-01 20:00N 36°37' W 009°20'815.2
2017-Sep-01 19:30N 36°42' W 009°27'715.0
2017-Sep-01 19:00N 36°48' W 009°33'815.2
2017-Sep-01 18:30N 36°55' W 009°36'815.2
2017-Sep-01 18:00N 37°02' W 009°39'815.6
2017-Sep-01 17:30N 37°10' W 009°41'815.5
2017-Sep-01 17:00N 37°18' W 009°42'815.5
2017-Sep-01 16:30N 37°25' W 009°44'815.5
2017-Sep-01 16:00N 37°33' W 009°46'815.0
2017-Sep-01 15:30N 37°40' W 009°48'815.2
2017-Sep-01 15:00N 37°47' W 009°50'815.5
2017-Sep-01 14:30N 37°55' W 009°53'815.5
2017-Sep-01 14:00N 38°02' W 009°55'815.3
2017-Sep-01 13:30N 38°10' W 009°57'815.2
2017-Sep-01 13:00N 38°17' W 009°60'715.0
2017-Sep-01 12:30N 38°25' W 010°02'715.0
2017-Sep-01 12:01N 38°32' W 010°05'815.0
2017-Sep-01 11:30N 38°39' W 010°07'714.8
2017-Sep-01 11:01N 38°46' W 010°07'815.0
2017-Sep-01 10:30N 38°54' W 010°07'715.0
2017-Sep-01 10:00N 39°01' W 010°06'815.1
2017-Sep-01 09:30N 39°09' W 010°06'715.0
2017-Sep-01 09:00N 39°16' W 010°05'815.1
2017-Sep-01 08:30N 39°24' W 010°04'815.0
2017-Sep-01 08:00N 39°32' W 010°04'1015.1
2017-Sep-01 07:22N 39°41' W 010°05'715.3
2017-Sep-01 06:54N 39°48' W 010°06'814.9
2017-Sep-01 06:20N 39°57' W 010°07'2614.7
2017-Sep-01 04:35N 40°22' W 010°07'114.7
2017-Sep-01 04:30N 40°24' W 010°07'814.7
2017-Sep-01 03:58N 40°32' W 010°07'  

Dump ship's entire track history